Time;durP1;ratioP1;P1;durP2;ratioP2;P2;SDS_P1;SDS_P2;PMS_P1;PMS_P2;Temp;Humidity;BMP_temperature;BMP_pressure;BME280_temperature;BME280_humidity;BME280_pressure;Samples;Min_cycle;Max_cycle;Signal;HPM_P1;HPM_P2
2021/07/14 01:42:46;;;;;;;;;20.75;19.00;;;;;-143.39;100.00;63593.47;4791830;26;45995;-87
2021/07/14 01:48:57;;;;;;;;;;;;;;;;;;;;;
2021/07/14 01:52:33;;;;;;;;;;;;;;;;;;;;;
2021/07/14 01:55:51;;;;;;;;;;;;;;;;;;;;;
2021/07/14 01:59:03;;;;;;;;;;;;;;;;;;;;;
2021/07/14 02:02:42;;;;;;;;;;;;;;;;;;;;;
2021/07/14 02:05:27;;;;;;;;;;;;;;;;;;;;;
2021/07/14 02:08:19;;;;;;;;;21.50;19.00;;;;;-143.39;100.00;63593.47;4958144;28;72964;-87
2021/07/14 02:11:43;;;;;;;;;;;;;;;;;;;;;
2021/07/14 02:14:50;;;;;;;;;;;;;;;;;;;;;
2021/07/14 02:18:13;;;;;;;;;;;;;;;;;;;;;
2021/07/14 02:24:44;;;;;;;;;;;;;;;;;;;;;
2021/07/14 02:31:12;;;;;;;;;;;;;;;;;;;;;
2021/07/14 02:33:53;;;;;;;;;;;;;;;;;;;;;
2021/07/14 02:37:08;;;;;;;;;;;;;;;;;;;;;
2021/07/14 02:43:37;;;;;;;;;;;;;;;;;;;;;
2021/07/14 02:46:51;;;;;;;;;;;;;;;;;;;;;
2021/07/14 02:52:38;;;;;;;;;;;;;;;;;;;;;
2021/07/14 02:55:37;;;;;;;;;10.50;7.75;;;;;-143.39;100.00;63593.47;4865460;29;67451;-87
2021/07/14 02:58:23;;;;;;;;;12.50;9.25;;;;;-143.39;100.00;63593.47;4846847;29;45469;-87
2021/07/14 03:01:18;;;;;;;;;;;;;;;;;;;;;
2021/07/14 03:04:31;;;;;;;;;;;;;;;;;;;;;
2021/07/14 03:07:31;;;;;;;;;;;;;;;;;;;;;
2021/07/14 03:13:56;;;;;;;;;;;;;;;;;;;;;
2021/07/14 03:17:01;;;;;;;;;;;;;;;;;;;;;
2021/07/14 03:20:04;;;;;;;;;;;;;;;;;;;;;
2021/07/14 03:23:06;;;;;;;;;;;;;;;;;;;;;
2021/07/14 03:28:46;;;;;;;;;;;;;;;;;;;;;
2021/07/14 03:32:26;;;;;;;;;;;;;;;;;;;;;
2021/07/14 03:35:07;;;;;;;;;;;;;;;;;;;;;
2021/07/14 03:38:32;;;;;;;;;;;;;;;;;;;;;
2021/07/14 03:41:22;;;;;;;;;9.50;7.25;;;;;-143.39;100.00;63593.47;4947402;28;72940;-87
2021/07/14 03:47:26;;;;;;;;;;;;;;;;;;;;;
2021/07/14 03:50:07;;;;;;;;;6.75;5.75;;;;;-143.39;100.00;63593.47;4962670;28;75360;-86
2021/07/14 03:56:30;;;;;;;;;7.25;6.75;;;;;-143.39;100.00;63593.47;4965119;28;45536;-87
2021/07/14 03:58:59;;;;;;;;;6.75;6.00;;;;;-143.39;100.00;63593.47;4962682;28;45515;-86
2021/07/14 04:01:33;;;;;;;;;6.00;6.00;;;;;-143.39;100.00;63593.47;4948125;28;47267;-86
2021/07/14 04:04:25;;;;;;;;;9.50;7.75;;;;;-143.39;100.00;63593.47;4952176;28;45528;-86
2021/07/14 04:07:19;;;;;;;;;;;;;;;;;;;;;
2021/07/14 04:10:03;;;;;;;;;;;;;;;;;;;;;
2021/07/14 04:13:09;;;;;;;;;;;;;;;;;;;;;
2021/07/14 04:16:24;;;;;;;;;;;;;;;;;;;;;
2021/07/14 04:19:43;;;;;;;;;;;;;;;;;;;;;
2021/07/14 04:22:56;;;;;;;;;;;;;;;;;;;;;
2021/07/14 04:28:28;;;;;;;;;;;;;;;;;;;;;
2021/07/14 04:31:11;;;;;;;;;;;;;;;;;;;;;
2021/07/14 04:34:30;;;;;;;;;;;;;;;;;;;;;
2021/07/14 04:37:49;;;;;;;;;;;;;;;;;;;;;
2021/07/14 04:40:57;;;;;;;;;;;;;;;;;;;;;
2021/07/14 04:44:17;;;;;;;;;;;;;;;;;;;;;
2021/07/14 04:47:04;;;;;;;;;;;;;;;;;;;;;
2021/07/14 04:49:59;;;;;;;;;9.00;7.00;;;;;-143.39;100.00;63593.47;4961895;28;75271;-86
2021/07/14 04:56:18;;;;;;;;;;;;;;;;;;;;;
2021/07/14 05:02:42;;;;;;;;;;;;;;;;;;;;;
2021/07/14 05:08:22;;;;;;;;;13.50;9.25;;;;;-143.39;100.00;63593.47;4909689;28;45438;-86
2021/07/14 05:11:45;;;;;;;;;;;;;;;;;;;;;
2021/07/14 05:14:21;;;;;;;;;;;;;;;;;;;;;
2021/07/14 05:17:15;;;;;;;;;;;;;;;;;;;;;
2021/07/14 05:20:06;;;;;;;;;14.50;10.50;;;;;-143.39;100.00;63593.47;4958946;28;67460;-87
2021/07/14 05:22:54;;;;;;;;;10.75;10.00;;;;;-143.39;100.00;63593.47;4966066;28;45281;-87
2021/07/14 05:29:13;;;;;;;;;;;;;;;;;;;;;
2021/07/14 05:32:07;;;;;;;;;;;;;;;;;;;;;
2021/07/14 05:35:28;;;;;;;;;;;;;;;;;;;;;
2021/07/14 05:38:30;;;;;;;;;;;;;;;;;;;;;
2021/07/14 05:41:07;;;;;;;;;17.00;13.50;;;;;-143.39;100.00;63593.47;4944596;28;73487;-86
2021/07/14 05:43:38;;;;;;;;;16.50;13.50;;;;;-143.39;100.00;63593.47;4946180;28;45382;-86
2021/07/14 05:46:26;;;;;;;;;;;;;;;;;;;;;
2021/07/14 05:49:02;;;;;;;;;;;;;;;;;;;;;
2021/07/14 05:51:36;;;;;;;;;17.00;13.25;;;;;-143.39;100.00;63593.47;4952132;28;72025;-86
2021/07/14 05:54:21;;;;;;;;;;;;;;;;;;;;;
2021/07/14 05:57:08;;;;;;;;;;;;;;;;;;;;;
2021/07/14 06:00:06;;;;;;;;;14.25;13.75;;;;;-143.39;100.00;63593.47;4960988;28;75313;-86
2021/07/14 06:03:01;;;;;;;;;;;;;;;;;;;;;
2021/07/14 06:05:27;;;;;;;;;14.25;10.75;;;;;-143.39;100.00;63593.47;4965070;28;69252;-86
2021/07/14 06:08:02;;;;;;;;;23.00;19.00;;;;;-143.39;100.00;63593.47;4966151;28;45139;-86
2021/07/14 06:10:51;;;;;;;;;21.00;17.25;;;;;-143.39;100.00;63593.47;4957380;28;46209;-86
2021/07/14 06:13:29;;;;;;;;;;;;;;;;;;;;;
2021/07/14 06:16:05;;;;;;;;;14.25;10.00;;;;;-143.39;100.00;63593.47;4951840;28;69454;-86
2021/07/14 06:18:51;;;;;;;;;;;;;;;;;;;;;
2021/07/14 06:21:55;;;;;;;;;;;;;;;;;;;;;
2021/07/14 06:24:52;;;;;;;;;9.00;9.00;;;;;-143.39;100.00;63593.47;4959772;28;72749;-86
2021/07/14 06:27:28;;;;;;;;;11.75;9.00;;;;;-143.39;100.00;63593.47;4962949;28;45233;-86
2021/07/14 06:30:05;;;;;;;;;;;;;;;;;;;;;
2021/07/14 06:32:50;;;;;;;;;9.00;7.75;;;;;-143.39;100.00;63593.47;4944377;28;74834;-87
2021/07/14 06:35:26;;;;;;;;;9.75;7.00;;;;;-143.39;100.00;63593.47;4957463;28;46085;-86
2021/07/14 06:37:59;;;;;;;;;9.75;9.00;;;;;-143.39;100.00;63593.47;4959627;28;45374;-87
2021/07/14 06:40:25;;;;;;;;;11.50;10.25;;;;;-143.39;100.00;63593.47;4954050;28;45416;-87
2021/07/14 06:42:51;;;;;;;;;11.25;7.00;;;;;-143.39;100.00;63593.47;4961777;28;45435;-86
2021/07/14 06:45:16;;;;;;;;;11.25;10.50;;;;;-143.39;100.00;63593.47;4944408;28;45843;-87
2021/07/14 06:47:42;;;;;;;;;9.00;9.00;;;;;-143.39;100.00;63593.47;4965083;28;45503;-87
2021/07/14 06:50:10;;;;;;;;;9.00;8.75;;;;;-143.39;100.00;63593.47;4964734;28;45771;-87
2021/07/14 06:52:36;;;;;;;;;8.00;7.00;;;;;-143.39;100.00;63593.47;4965105;28;45259;-87
2021/07/14 06:55:03;;;;;;;;;11.25;10.00;;;;;-143.39;100.00;63593.47;4963830;28;45478;-87
2021/07/14 06:57:29;;;;;;;;;8.25;8.25;;;;;-143.39;100.00;63593.47;4970446;28;45580;-83
2021/07/14 06:59:54;;;;;;;;;10.00;9.00;;;;;-143.39;100.00;63593.47;4953609;28;45304;-86
2021/07/14 07:02:22;;;;;;;;;9.25;6.75;;;;;-143.39;100.00;63593.47;4965485;28;45568;-87
2021/07/14 07:04:48;;;;;;;;;10.25;10.25;;;;;-143.39;100.00;63593.47;4960756;28;45666;-87
2021/07/14 07:07:16;;;;;;;;;9.50;9.25;;;;;-143.39;100.00;63593.47;4953749;28;45332;-87
2021/07/14 07:09:43;;;;;;;;;7.25;7.25;;;;;-143.39;100.00;63593.47;4947756;28;45558;-86
2021/07/14 07:12:12;;;;;;;;;7.75;7.75;;;;;-143.39;100.00;63593.47;4966826;28;45471;-87
2021/07/14 07:14:50;;;;;;;;;;;;;;;;;;;;;
2021/07/14 07:17:26;;;;;;;;;;;;;;;;;;;;;
2021/07/14 07:20:03;;;;;;;;;9.50;9.25;;;;;-143.39;100.00;63593.47;4977228;28;73384;-86
2021/07/14 07:22:36;;;;;;;;;12.00;10.00;;;;;-143.39;100.00;63593.47;4964606;28;45457;-86
2021/07/14 07:25:03;;;;;;;;;9.50;9.00;;;;;-143.39;100.00;63593.47;4964021;28;45496;-87
2021/07/14 07:27:36;;;;;;;;;9.75;9.00;;;;;-143.39;100.00;63593.47;4964958;28;46788;-86
2021/07/14 07:30:06;;;;;;;;;15.75;12.75;;;;;-143.39;100.00;63593.47;4969413;28;45222;-86
2021/07/14 07:32:43;;;;;;;;;13.50;8.75;;;;;-143.39;100.00;63593.47;4975866;28;45487;-86
2021/07/14 07:35:13;;;;;;;;;8.75;8.75;;;;;-143.39;100.00;63593.47;4956483;28;45448;-87
2021/07/14 07:37:38;;;;;;;;;7.50;7.50;;;;;-143.39;100.00;63593.47;4966309;28;45360;-87
2021/07/14 07:40:06;;;;;;;;;10.00;9.00;;;;;-143.39;100.00;63593.47;4936518;28;45424;-87
2021/07/14 07:42:31;;;;;;;;;9.50;9.50;;;;;-143.39;100.00;63593.47;4947779;28;47292;-87
2021/07/14 07:44:57;;;;;;;;;7.00;7.00;;;;;-143.39;100.00;63593.47;4956594;28;45443;-87
2021/07/14 07:47:38;;;;;;;;;8.25;6.50;;;;;-143.39;100.00;63593.47;4948563;28;45409;-87
2021/07/14 07:50:07;;;;;;;;;10.25;7.00;;;;;-143.39;100.00;63593.47;4965576;28;45675;-87
2021/07/14 07:52:33;;;;;;;;;6.75;6.75;;;;;-143.39;100.00;63593.47;4942341;28;47172;-87
2021/07/14 07:55:01;;;;;;;;;17.50;11.50;;;;;-143.39;100.00;63593.47;4955514;28;46031;-88
2021/07/14 07:57:29;;;;;;;;;14.00;10.25;;;;;-143.39;100.00;63593.47;4962967;28;45351;-87
2021/07/14 07:59:55;;;;;;;;;11.25;7.00;;;;;-143.39;100.00;63593.47;4961494;28;45515;-88
2021/07/14 08:02:26;;;;;;;;;9.50;7.50;;;;;-143.39;100.00;63593.47;4960086;28;45330;-87
2021/07/14 08:04:54;;;;;;;;;6.00;5.50;;;;;-143.39;100.00;63593.47;4956131;28;45343;-87
2021/07/14 08:07:22;;;;;;;;;9.00;9.00;;;;;-143.39;100.00;63593.47;4943520;28;45506;-87
2021/07/14 08:09:54;;;;;;;;;8.50;7.00;;;;;-143.39;100.00;63593.47;4959749;28;45425;-88
2021/07/14 08:12:29;;;;;;;;;;;;;;;;;;;;;
2021/07/14 08:15:56;;;;;;;;;;;;;;;;;;;;;
2021/07/14 08:21:25;;;;;;;;;10.50;7.00;;;;;-143.39;100.00;63593.47;4899174;28;45975;-87
2021/07/14 09:12:59;;;;;;;;;;;;;;;;;;;;;
2021/07/14 09:19:11;;;;;;;;;6.00;4.00;;;;;-143.39;100.00;63593.47;4879632;29;45214;-86
2021/07/14 09:22:05;;;;;;;;;5.75;4.75;;;;;-143.39;100.00;63593.47;4933209;28;45405;-88
2021/07/14 09:24:33;;;;;;;;;9.00;7.00;;;;;-143.39;100.00;63593.47;4939724;28;48281;-84
2021/07/14 09:27:35;;;;;;;;;5.50;5.00;;;;;-143.39;100.00;63593.47;4944078;28;46133;-85
2021/07/14 09:30:28;;;;;;;;;;;;;;;;;;;;;
2021/07/14 12:21:04;;;;;;;;;11.75;11.75;;;;;-143.39;100.00;63593.47;6002546;23;46673;-86
2021/07/14 12:55:18;;;;;;;;;;;;;;;;;;;;;
2021/07/14 12:57:46;;;;;;;;;10.75;9.75;;;;;-143.39;100.00;63593.47;4926967;28;73002;-89
2021/07/14 14:16:37;;;;;;;;;13.50;10.75;;;;;-143.39;100.00;63593.47;5166484;23;45510;-82
2021/07/14 14:20:15;;;;;;;;;;;;;;;;;;;;;
2021/07/14 14:34:02;;;;;;;;;;;;;;;;;;;;;
2021/07/14 14:37:18;;;;;;;;;11.25;11.25;;;;;-143.39;100.00;63593.47;4758398;29;72091;-85
2021/07/14 14:39:47;;;;;;;;;7.00;5.00;;;;;-143.39;100.00;63593.47;4751303;29;45494;-83
2021/07/14 14:42:13;;;;;;;;;11.75;11.75;;;;;-143.39;100.00;63593.47;4756903;29;45413;-84
2021/07/14 14:44:45;;;;;;;;;15.00;15.00;;;;;-143.39;100.00;63593.47;4794863;29;45629;-83
2021/07/14 14:47:11;;;;;;;;;14.50;13.75;;;;;-143.39;100.00;63593.47;4901431;28;45388;-84
2021/07/14 14:49:36;;;;;;;;;13.25;12.75;;;;;-143.39;100.00;63593.47;4960090;28;46395;-84
2021/07/14 14:52:02;;;;;;;;;13.75;12.00;;;;;-143.39;100.00;63593.47;4944058;28;45847;-84
2021/07/14 14:54:28;;;;;;;;;14.00;13.75;;;;;-143.39;100.00;63593.47;4964943;28;45279;-83
2021/07/14 14:57:02;;;;;;;;;15.50;12.75;;;;;-143.39;100.00;63593.47;4975161;28;45445;-84
2021/07/14 14:59:28;;;;;;;;;14.00;11.50;;;;;-143.39;100.00;63593.47;4967077;28;45447;-83
2021/07/14 15:01:54;;;;;;;;;10.75;10.50;;;;;-143.39;100.00;63593.47;4969901;28;45306;-84
2021/07/14 15:04:19;;;;;;;;;12.25;11.50;;;;;-143.39;100.00;63593.47;4942588;28;45374;-86
2021/07/14 15:06:45;;;;;;;;;13.25;12.00;;;;;-143.39;100.00;63593.47;4954265;28;45504;-85
2021/07/14 15:09:12;;;;;;;;;14.00;12.00;;;;;-143.39;100.00;63593.47;4956990;28;45420;-85
2021/07/14 15:11:38;;;;;;;;;12.50;12.00;;;;;-143.39;100.00;63593.47;4971128;28;45433;-84
2021/07/14 15:14:04;;;;;;;;;17.75;13.75;;;;;-143.39;100.00;63593.47;4950054;28;45191;-86
2021/07/14 15:16:29;;;;;;;;;14.75;13.00;;;;;-143.39;100.00;63593.47;4965449;28;45285;-87
2021/07/14 15:18:57;;;;;;;;;13.00;12.25;;;;;-143.39;100.00;63593.47;4962396;28;45786;-85
2021/07/14 15:21:24;;;;;;;;;15.25;13.75;;;;;-143.39;100.00;63593.47;4964261;28;45290;-83
2021/07/14 15:23:52;;;;;;;;;14.00;11.50;;;;;-143.39;100.00;63593.47;4944707;28;45465;-84
2021/07/14 15:29:02;;;;;;;;;13.50;13.25;;;;;-143.39;100.00;63593.47;4960874;28;45757;-84
2021/07/14 15:31:28;;;;;;;;;13.50;12.25;;;;;-143.39;100.00;63593.47;4961237;28;45176;-84
2021/07/14 15:33:54;;;;;;;;;13.00;11.25;;;;;-143.39;100.00;63593.47;4946201;28;45231;-84
2021/07/14 15:36:20;;;;;;;;;13.75;11.25;;;;;-143.39;100.00;63593.47;4960402;28;45215;-84
2021/07/14 15:38:46;;;;;;;;;13.00;13.00;;;;;-143.39;100.00;63593.47;4961289;28;46401;-84
2021/07/14 15:41:11;;;;;;;;;13.75;12.00;;;;;-143.39;100.00;63593.47;4939885;28;45257;-84
2021/07/14 15:43:37;;;;;;;;;13.00;11.00;;;;;-143.39;100.00;63593.47;4961171;28;45498;-84
2021/07/14 15:46:02;;;;;;;;;13.75;12.75;;;;;-143.39;100.00;63593.47;4958253;28;45448;-84
2021/07/14 15:48:28;;;;;;;;;13.75;9.25;;;;;-143.39;100.00;63593.47;4950473;28;46362;-84
2021/07/14 15:50:53;;;;;;;;;12.00;12.00;;;;;-143.39;100.00;63593.47;4963111;28;45440;-84
2021/07/14 15:53:20;;;;;;;;;12.75;12.25;;;;;-143.39;100.00;63593.47;4966148;28;45262;-84
2021/07/14 15:55:46;;;;;;;;;15.00;13.50;;;;;-143.39;100.00;63593.47;4967696;28;45492;-84
2021/07/14 15:58:11;;;;;;;;;13.50;13.50;;;;;-143.39;100.00;63593.47;4943620;28;47999;-84
2021/07/14 16:00:37;;;;;;;;;19.00;13.00;;;;;-143.39;100.00;63593.47;4943421;28;45763;-84
2021/07/14 16:03:03;;;;;;;;;15.00;12.00;;;;;-143.39;100.00;63593.47;4935392;28;45332;-84
2021/07/14 16:05:28;;;;;;;;;15.75;14.00;;;;;-143.39;100.00;63593.47;4961287;28;45626;-84
2021/07/14 16:07:53;;;;;;;;;14.75;11.25;;;;;-143.39;100.00;63593.47;4960177;28;45305;-84
2021/07/14 16:10:19;;;;;;;;;15.25;12.50;;;;;-143.39;100.00;63593.47;4943018;28;45371;-84
2021/07/14 16:12:44;;;;;;;;;18.75;13.00;;;;;-143.39;100.00;63593.47;4943779;28;45489;-84
2021/07/14 16:15:12;;;;;;;;;14.50;11.75;;;;;-143.39;100.00;63593.47;4962427;28;45223;-84
2021/07/14 16:17:38;;;;;;;;;17.25;16.75;;;;;-143.39;100.00;63593.47;4962453;28;46271;-83
2021/07/14 16:20:05;;;;;;;;;12.50;12.25;;;;;-143.39;100.00;63593.47;4944687;28;45338;-84
2021/07/14 16:22:32;;;;;;;;;18.00;14.00;;;;;-143.39;100.00;63593.47;4947318;28;45255;-86
2021/07/14 16:24:58;;;;;;;;;12.50;12.50;;;;;-143.39;100.00;63593.47;4955582;28;46063;-85
2021/07/14 16:27:23;;;;;;;;;18.00;13.50;;;;;-143.39;100.00;63593.47;4939082;28;47644;-85
2021/07/14 16:29:49;;;;;;;;;14.00;12.75;;;;;-143.39;100.00;63593.47;4964361;28;45194;-85
2021/07/14 16:32:15;;;;;;;;;16.25;13.00;;;;;-143.39;100.00;63593.47;4962764;28;45437;-84
2021/07/14 16:34:41;;;;;;;;;16.50;15.25;;;;;-143.39;100.00;63593.47;4950412;28;45229;-85
2021/07/14 16:37:06;;;;;;;;;13.75;13.75;;;;;-143.39;100.00;63593.47;4965661;28;45657;-85
2021/07/14 16:39:32;;;;;;;;;14.75;13.25;;;;;-143.39;100.00;63593.47;4968564;28;45211;-85
2021/07/14 16:41:57;;;;;;;;;13.25;11.00;;;;;-143.39;100.00;63593.47;4939566;28;45590;-85
2021/07/14 16:44:23;;;;;;;;;17.25;12.25;;;;;-143.39;100.00;63593.47;4948214;28;45693;-85
2021/07/14 16:46:49;;;;;;;;;15.25;13.50;;;;;-143.39;100.00;63593.47;4965802;28;46019;-84
2021/07/14 16:49:14;;;;;;;;;13.25;12.25;;;;;-143.39;100.00;63593.47;4963122;28;46553;-83
2021/07/14 16:51:40;;;;;;;;;15.00;13.25;;;;;-143.39;100.00;63593.47;4955257;28;45470;-82
2021/07/14 16:54:06;;;;;;;;;14.75;14.75;;;;;-143.39;100.00;63593.47;4983647;28;45408;-83
2021/07/14 16:56:32;;;;;;;;;13.50;13.50;;;;;-143.39;100.00;63593.47;4958257;28;45400;-84
2021/07/14 16:58:57;;;;;;;;;15.00;13.00;;;;;-143.39;100.00;63593.47;4947424;28;45244;-83
2021/07/14 17:01:23;;;;;;;;;15.00;13.25;;;;;-143.39;100.00;63593.47;4951215;28;45334;-84
2021/07/14 17:03:48;;;;;;;;;17.00;14.25;;;;;-143.39;100.00;63593.47;4946603;28;45524;-84
2021/07/14 17:06:14;;;;;;;;;22.25;19.00;;;;;-143.39;100.00;63593.47;4965706;28;45235;-83
2021/07/14 17:08:42;;;;;;;;;14.50;13.50;;;;;-143.39;100.00;63593.47;4966732;28;45307;-81
2021/07/14 17:11:07;;;;;;;;;15.25;14.50;;;;;-143.39;100.00;63593.47;4951815;28;45285;-84
2021/07/14 17:13:33;;;;;;;;;12.50;12.50;;;;;-143.39;100.00;63593.47;4962728;28;45309;-83
2021/07/14 17:15:58;;;;;;;;;19.50;16.25;;;;;-143.39;100.00;63593.47;4962621;28;45416;-82
2021/07/14 17:18:23;;;;;;;;;16.25;15.75;;;;;-143.39;100.00;63593.47;4966507;28;45317;-83
2021/07/14 17:20:49;;;;;;;;;14.25;14.25;;;;;-143.39;100.00;63593.47;4965551;28;45294;-84
2021/07/14 17:23:15;;;;;;;;;19.75;15.00;;;;;-143.39;100.00;63593.47;4951606;28;45484;-83
2021/07/14 17:25:42;;;;;;;;;16.50;15.75;;;;;-143.39;100.00;63593.47;4953864;28;46748;-84
2021/07/14 17:28:08;;;;;;;;;22.75;15.25;;;;;-143.39;100.00;63593.47;4964481;28;45148;-84
2021/07/14 17:30:33;;;;;;;;;22.50;18.00;;;;;-143.39;100.00;63593.47;4963396;28;45224;-84
2021/07/14 17:33:00;;;;;;;;;19.75;18.25;;;;;-143.39;100.00;63593.47;4962968;28;45312;-84
2021/07/14 17:35:25;;;;;;;;;18.25;17.25;;;;;-143.39;100.00;63593.47;4961209;28;45300;-83
2021/07/14 17:37:51;;;;;;;;;16.00;14.00;;;;;-143.39;100.00;63593.47;4946043;28;45136;-84
2021/07/14 17:40:17;;;;;;;;;18.25;17.25;;;;;-143.39;100.00;63593.47;4965597;28;45198;-86
2021/07/14 17:42:43;;;;;;;;;14.75;14.00;;;;;-143.39;100.00;63593.47;4967345;28;45501;-86
2021/07/14 17:45:09;;;;;;;;;11.50;11.50;;;;;-143.39;100.00;63593.47;4965522;28;46180;-86
2021/07/14 17:47:35;;;;;;;;;17.75;13.50;;;;;-143.39;100.00;63593.47;4944407;28;45422;-85
2021/07/14 17:50:00;;;;;;;;;16.50;15.50;;;;;-143.39;100.00;63593.47;4956400;28;45381;-85
2021/07/14 17:52:26;;;;;;;;;14.25;14.25;;;;;-143.39;100.00;63593.47;4963192;28;45375;-85
2021/07/14 17:54:51;;;;;;;;;17.00;14.00;;;;;-143.39;100.00;63593.47;4945930;28;48210;-85
2021/07/14 17:57:17;;;;;;;;;18.00;15.25;;;;;-143.39;100.00;63593.47;4946714;28;45891;-85
2021/07/14 17:59:42;;;;;;;;;16.75;15.50;;;;;-143.39;100.00;63593.47;4955259;28;45230;-85
2021/07/14 18:02:08;;;;;;;;;13.25;13.25;;;;;-143.39;100.00;63593.47;4948097;28;45203;-86
2021/07/14 18:04:34;;;;;;;;;19.25;15.00;;;;;-143.39;100.00;63593.47;4966415;28;46140;-86
2021/07/14 18:07:00;;;;;;;;;22.00;19.50;;;;;-143.39;100.00;63593.47;4964687;28;45216;-86
2021/07/14 18:09:26;;;;;;;;;12.00;11.50;;;;;-143.39;100.00;63593.47;4952108;28;45174;-85
2021/07/14 18:11:52;;;;;;;;;20.00;15.50;;;;;-143.39;100.00;63593.47;4968075;28;45492;-84
2021/07/14 18:14:18;;;;;;;;;17.75;15.50;;;;;-143.39;100.00;63593.47;4961636;28;45933;-84
2021/07/14 18:16:44;;;;;;;;;19.50;18.25;;;;;-143.39;100.00;63593.47;4961853;28;45294;-85
2021/07/14 18:19:10;;;;;;;;;22.75;20.25;;;;;-143.39;100.00;63593.47;4952864;28;45417;-85
2021/07/14 18:21:35;;;;;;;;;21.25;18.00;;;;;-143.39;100.00;63593.47;4960436;28;45446;-86
2021/07/14 18:24:02;;;;;;;;;21.50;16.00;;;;;-143.39;100.00;63593.47;4964389;28;45761;-85
2021/07/14 18:26:27;;;;;;;;;22.75;19.00;;;;;-143.39;100.00;63593.47;4964219;28;45353;-84
2021/07/14 18:28:53;;;;;;;;;26.00;21.75;;;;;-143.39;100.00;63593.47;4961828;28;45328;-85
2021/07/14 18:31:20;;;;;;;;;28.25;25.75;;;;;-143.39;100.00;63593.47;4960237;28;45245;-85
2021/07/14 18:33:47;;;;;;;;;37.25;31.75;;;;;-143.39;100.00;63593.47;4938975;28;46042;-85
2021/07/14 18:36:15;;;;;;;;;16.25;13.75;;;;;-143.39;100.00;63593.47;4961440;28;45616;-85
2021/07/14 18:38:41;;;;;;;;;18.50;17.50;;;;;-143.39;100.00;63593.47;4955903;28;45470;-85
2021/07/14 18:41:08;;;;;;;;;17.50;13.00;;;;;-143.39;100.00;63593.47;4957417;28;45293;-87
2021/07/14 18:43:37;;;;;;;;;14.00;12.50;;;;;-143.39;100.00;63593.47;4934452;28;48527;-87
2021/07/14 18:46:02;;;;;;;;;21.00;19.75;;;;;-143.39;100.00;63593.47;4958488;28;45420;-87
2021/07/14 18:48:28;;;;;;;;;22.75;18.50;;;;;-143.39;100.00;63593.47;4947877;28;45482;-86
2021/07/14 18:50:53;;;;;;;;;19.75;17.00;;;;;-143.39;100.00;63593.47;4961547;28;45651;-88
2021/07/14 18:53:19;;;;;;;;;20.00;19.25;;;;;-143.39;100.00;63593.47;4959139;28;45805;-89
2021/07/14 18:55:46;;;;;;;;;24.00;18.50;;;;;-143.39;100.00;63593.47;4943540;28;45456;-89
2021/07/14 18:58:12;;;;;;;;;20.50;18.00;;;;;-143.39;100.00;63593.47;4981096;28;45205;-89
2021/07/14 19:00:37;;;;;;;;;15.75;15.25;;;;;-143.39;100.00;63593.47;4940524;28;45544;-86
2021/07/14 19:03:03;;;;;;;;;20.00;16.75;;;;;-143.39;100.00;63593.47;4957531;28;45915;-87
2021/07/14 19:05:29;;;;;;;;;16.50;16.50;;;;;-143.39;100.00;63593.47;4971682;28;45420;-89
2021/07/14 19:07:54;;;;;;;;;21.00;19.50;;;;;-143.39;100.00;63593.47;4966905;28;46329;-88
2021/07/14 19:10:25;;;;;;;;;21.50;19.75;;;;;-143.39;100.00;63593.47;4950400;28;45641;-88
2021/07/14 19:12:51;;;;;;;;;19.25;18.00;;;;;-143.39;100.00;63593.47;4942099;28;47440;-88
2021/07/14 19:15:17;;;;;;;;;19.25;17.75;;;;;-143.39;100.00;63593.47;4958713;28;45534;-87
2021/07/14 19:17:43;;;;;;;;;18.25;17.00;;;;;-143.39;100.00;63593.47;4959724;28;45393;-87
2021/07/14 19:20:09;;;;;;;;;20.75;20.75;;;;;-143.39;100.00;63593.47;4961707;28;45465;-87
2021/07/14 19:22:35;;;;;;;;;20.50;19.00;;;;;-143.39;100.00;63593.47;4943783;28;45948;-87
2021/07/14 19:25:00;;;;;;;;;19.25;19.25;;;;;-143.39;100.00;63593.47;4963525;28;45172;-87
2021/07/14 19:27:26;;;;;;;;;23.00;18.75;;;;;-143.39;100.00;63593.47;4938721;28;45505;-87
2021/07/14 19:29:52;;;;;;;;;21.00;17.25;;;;;-143.39;100.00;63593.47;4966448;28;45436;-88
2021/07/14 19:32:18;;;;;;;;;21.25;19.75;;;;;-143.39;100.00;63593.47;4970900;28;46398;-88
2021/07/14 19:34:44;;;;;;;;;19.75;17.50;;;;;-143.39;100.00;63593.47;4947314;28;45515;-87
2021/07/14 19:37:10;;;;;;;;;20.00;18.50;;;;;-143.39;100.00;63593.47;4948543;28;44814;-90
2021/07/14 19:39:36;;;;;;;;;25.00;21.00;;;;;-143.39;100.00;63593.47;4971978;28;45493;-87
2021/07/14 19:42:03;;;;;;;;;24.75;20.25;;;;;-143.39;100.00;63593.47;4970875;28;46737;-87
2021/07/14 19:44:29;;;;;;;;;20.50;18.25;;;;;-143.39;100.00;63593.47;4967468;28;45219;-87
2021/07/14 19:46:55;;;;;;;;;24.75;18.50;;;;;-143.39;100.00;63593.47;4965749;28;45520;-85
2021/07/14 19:49:21;;;;;;;;;21.25;18.75;;;;;-143.39;100.00;63593.47;4948879;28;45395;-89
2021/07/14 19:51:46;;;;;;;;;22.00;19.50;;;;;-143.39;100.00;63593.47;4962470;28;47257;-89
2021/07/14 19:54:12;;;;;;;;;23.00;20.00;;;;;-143.39;100.00;63593.47;4961090;28;44845;-87
2021/07/14 19:56:38;;;;;;;;;23.25;20.75;;;;;-143.39;100.00;63593.47;4950230;28;45580;-87
2021/07/14 19:59:03;;;;;;;;;28.50;22.25;;;;;-143.39;100.00;63593.47;4954919;28;45362;-88
2021/07/14 20:01:29;;;;;;;;;26.25;22.00;;;;;-143.39;100.00;63593.47;4979473;28;45771;-87
2021/07/14 20:03:55;;;;;;;;;24.75;19.00;;;;;-143.39;100.00;63593.47;4965901;28;45442;-88
2021/07/14 20:06:22;;;;;;;;;22.25;19.25;;;;;-143.39;100.00;63593.47;4978822;28;45325;-88
2021/07/14 20:08:49;;;;;;;;;22.50;21.00;;;;;-143.39;100.00;63593.47;4952718;28;45730;-86
2021/07/14 20:11:16;;;;;;;;;25.00;21.00;;;;;-143.39;100.00;63593.47;4967586;28;45537;-88
2021/07/14 20:13:43;;;;;;;;;30.00;23.25;;;;;-143.39;100.00;63593.47;4978013;28;45191;-88
2021/07/14 20:16:10;;;;;;;;;24.50;20.75;;;;;-143.39;100.00;63593.47;4978949;28;44891;-88
2021/07/14 20:18:37;;;;;;;;;22.50;20.75;;;;;-143.39;100.00;63593.47;4955610;28;45524;-86
2021/07/14 20:21:03;;;;;;;;;25.00;20.25;;;;;-143.39;100.00;63593.47;4972704;28;45418;-87
2021/07/14 20:23:28;;;;;;;;;25.75;20.50;;;;;-143.39;100.00;63593.47;4962438;28;44915;-89
2021/07/14 20:25:55;;;;;;;;;18.75;18.00;;;;;-143.39;100.00;63593.47;4988150;28;45293;-86
2021/07/14 20:28:21;;;;;;;;;22.00;17.75;;;;;-143.39;100.00;63593.47;4961416;28;45272;-87
2021/07/14 20:30:47;;;;;;;;;21.50;18.75;;;;;-143.39;100.00;63593.47;4976914;28;45444;-86
2021/07/14 20:33:12;;;;;;;;;19.75;18.75;;;;;-143.39;100.00;63593.47;4978856;28;45466;-86
2021/07/14 20:35:38;;;;;;;;;20.00;20.00;;;;;-143.39;100.00;63593.47;4987735;28;45677;-88
2021/07/14 20:38:05;;;;;;;;;20.00;19.50;;;;;-143.39;100.00;63593.47;4956814;28;45433;-88
2021/07/14 20:40:33;;;;;;;;;20.25;18.00;;;;;-143.39;100.00;63593.47;4960629;28;45744;-88
2021/07/14 20:43:07;;;;;;;;;18.75;18.25;;;;;-143.39;100.00;63593.47;4984573;28;45448;-89
2021/07/14 20:45:34;;;;;;;;;18.75;15.00;;;;;-143.39;100.00;63593.47;4973010;28;44783;-88
2021/07/14 20:48:00;;;;;;;;;22.75;19.25;;;;;-143.39;100.00;63593.47;4981362;28;45314;-88
2021/07/14 20:50:25;;;;;;;;;18.75;18.75;;;;;-143.39;100.00;63593.47;4972074;28;45762;-88
2021/07/14 20:52:54;;;;;;;;;19.00;16.75;;;;;-143.39;100.00;63593.47;4957269;28;45224;-88
2021/07/14 20:55:20;;;;;;;;;16.00;16.00;;;;;-143.39;100.00;63593.47;4981223;28;44809;-87
2021/07/14 20:57:46;;;;;;;;;17.00;16.75;;;;;-143.39;100.00;63593.47;4978541;28;45459;-88
2021/07/14 21:00:16;;;;;;;;;16.25;14.75;;;;;-143.39;100.00;63593.47;4959165;28;47917;-87
2021/07/14 21:02:41;;;;;;;;;23.00;17.50;;;;;-143.39;100.00;63593.47;4954979;28;45432;-88
2021/07/14 21:05:07;;;;;;;;;18.75;15.50;;;;;-143.39;100.00;63593.47;4946415;28;45350;-86
2021/07/14 21:07:34;;;;;;;;;18.75;16.00;;;;;-143.39;100.00;63593.47;4957144;28;45489;-87
2021/07/14 21:10:04;;;;;;;;;16.25;14.25;;;;;-143.39;100.00;63593.47;4971472;28;46148;-88
2021/07/14 21:12:33;;;;;;;;;17.00;13.50;;;;;-143.39;100.00;63593.47;4979546;28;45467;-87
2021/07/14 21:14:58;;;;;;;;;13.00;13.00;;;;;-143.39;100.00;63593.47;4978431;28;45476;-88
2021/07/14 21:17:23;;;;;;;;;16.25;13.00;;;;;-143.39;100.00;63593.47;4964727;28;45438;-87
2021/07/14 21:19:49;;;;;;;;;15.50;15.00;;;;;-143.39;100.00;63593.47;4945375;28;47004;-87
2021/07/14 21:22:14;;;;;;;;;17.00;14.50;;;;;-143.39;100.00;63593.47;4977573;28;45672;-87